Air Resources Laboratory banner image
Air Resources Laboratory web site National Oceanic and Atmospheric Administration (NOAA)

oh metar


KAKR 130754Z AUTO 28011KT 8SM -SN FEW031 OVC046 M09/M13 A2982 RMK AO2 SNE45B53
 SLP113 P0000 T10891128=
KAOH 130753Z AUTO 26010KT 10SM BKN022 OVC041 M08/M12 A2989 RMK AO2 SLP138
 T10831117=
KBJJ 130756Z AUTO 29013KT 10SM OVC044 M09/M16 A2984 RMK AO2 SLP125 T10941161=
KBKL 130753Z 30019G29KT 10SM BKN041 OVC049 M06/M13 A2982 RMK AO2 PK WND
 29031/0712 SLP108 T10611133 $=
KCAK 130751Z 29010KT 7SM -SN FEW035 OVC048 M09/M14 A2981 RMK AO2 SNE24B51
 SLP115 P0000 T10941144 $=
KCLE 130751Z 31013KT 8SM -SN OVC038 M07/M13 A2986 RMK AO2 SLP122 P0000
 T10671133 $=
KCMH 130751Z 28009KT 9SM -SN SCT029 OVC044 M07/M11 A2992 RMK AO2 SLP142 P0000
 T10671106 $=
KDAY 130756Z 26009KT 10SM BKN075 M10/M13 A2993 RMK AO2 SLP151 T11001128=
KDFI 130753Z AUTO 19006KT 10SM BKN021 OVC041 M08/M11 A2989 RMK AO2 SLP134
 T10781111 $=
KFDY 130753Z AUTO 26009KT 10SM SCT030 OVC039 M07/M13 A2989 RMK AO2 SLP129
 T10721128=
KFFO 130756Z AUTO 24007KT 10SM SCT075 M09/M14 A2993 RMK AO2 SLP151 T10891136=
KHAO 130753Z AUTO 27004KT 10SM SCT080 M08/M11 A2999 RMK AO2 SLP165 T10831111=
KHZY 130753Z AUTO 30013G20KT 10SM BKN032 OVC055 M08/M14 A2977 RMK AO2 SLP094
 T10831139=
KILN 130754Z AUTO 25006KT 10SM CLR M09/M13 A2993 RMK AO2 SLP170 T10941128=
KLCK 130755Z AUTO 28009KT 10SM OVC044 M07/M12 A2993 RMK AO2 T10671119=
KLHQ 130753Z AUTO 28007KT 10SM OVC046 M07/M12 A2992 RMK AO2 SLP143 T10671122=
KLNN 130755Z AUTO 31018G27KT 10SM BKN029 OVC034 M07/M13 A2981 RMK AO1 T10711126=
KLPR 130753Z AUTO 31013G19KT 10SM OVC044 M08/M16 A2985 RMK AO2 SNB14E30 SLP121
 P0000 T10781161=
KLUK 130753Z AUTO 26007KT 10SM CLR M07/M13 A3001 RMK AO2 SLP168 T10671128=
KMFD 130752Z AUTO 27007KT 10SM OVC049 M09/M16 A2984 RMK AO2 SLP127 T10891156=
KMGY 130753Z AUTO 24005KT 10SM CLR M09/M13 A2993 RMK AO2 SLP149 T10891133=
KMNN 130753Z AUTO 29006KT 10SM M08/M12 A2989 RMK AO2 SNB22 SLP138 P0000
 T10781117 $=
KOSU 130753Z AUTO 28012KT 10SM OVC041 M07/M11 A2991 RMK AO2 SNB29E41 SLP142
 P0000 T10721111=
KPHD 130753Z AUTO 29007KT 10SM SCT050 M09/M17 A2987 RMK AO2 SLP130 T10891167 $=
KSGH 130756Z AUTO 26008KT 10SM CLR M11/M14 A2992 RMK AO2 SLP152 T11061139=
KTDZ 130753Z AUTO 27011KT 10SM OVC049 M07/M14 A2989 RMK AO2 SLP130 T10721139=
KTOL 130752Z 25009KT 10SM OVC048 M08/M12 A2987 RMK AO2 SLP128 T10781117=
KTZR 130755Z AUTO 28006KT 10SM OVC038 M07/M12 A2993 RMK AO2 T10681121=
KVTA 130754Z AUTO 28005KT 3SM -SN FEW015 BKN019 OVC025 M07/M10 A2990 RMK AO2
 SNB12 SLP136 P0000 T10721100=
KYNG 130751Z 27012KT 9SM -SN FEW023 OVC039 M09/M13 A2976 RMK AO2 SLP095 DRSN
 P0000 T10891133=
KZZV 130753Z AUTO 28008KT 10SM OVC050 M07/M14 A2990 RMK AO2 SLP136 T10671139=